Time;durP1;ratioP1;P1;durP2;ratioP2;P2;SDS_P1;SDS_P2;PMS_P1;PMS_P2;Temp;Humidity;BMP_temperature;BMP_pressure;BME280_temperature;BME280_humidity;BME280_pressure;Samples;Min_cycle;Max_cycle;Signal;HPM_P1;HPM_P2
2021/12/05 00:22:17;;;;;;;7.05;1.50;;;7.00;99.90;;;;;;5036598;28;20040;-72
2021/12/05 00:24:48;;;;;;;4.00;1.17;;;6.90;99.90;;;;;;5036707;28;20034;-73
2021/12/05 00:27:18;;;;;;;8.70;2.08;;;6.90;99.90;;;;;;5018377;28;20549;-73
2021/12/05 00:29:55;;;;;;;6.03;1.23;;;6.80;99.90;;;;;;5018641;28;20036;-72
2021/12/05 00:32:30;;;;;;;6.53;2.28;;;6.80;99.90;;;;;;5036659;28;20905;-73
2021/12/05 00:48:54;;;;;;;7.47;1.52;;;6.60;99.90;;;;;;5036602;28;20164;-72
2021/12/05 01:09:39;;;;;;;5.10;1.27;;;6.80;99.90;;;;;;5036214;28;20029;-73
2021/12/05 01:17:31;;;;;;;5.03;2.03;;;6.70;99.90;;;;;;5035805;28;20040;-73
2021/12/05 01:19:57;;;;;;;11.77;2.22;;;6.70;99.90;;;;;;5034571;28;20053;-72
2021/12/05 01:22:23;;;;;;;6.40;1.95;;;6.70;99.90;;;;;;5035449;28;20400;-73
2021/12/05 01:25:00;;;;;;;6.82;1.77;;;6.70;99.90;;;;;;5035310;28;20025;-72
2021/12/05 01:30:43;;;;;;;7.10;1.63;;;6.60;99.90;;;;;;4997234;28;20030;-73
2021/12/05 01:38:19;;;;;;;5.65;1.90;;;6.50;99.90;;;;;;5035139;28;20029;-73
2021/12/05 02:09:45;;;;;;;6.25;2.83;;;6.40;99.90;;;;;;5034284;28;20087;-73
2021/12/05 02:34:31;;;;;;;2.78;1.10;;;6.40;99.90;;;;;;5034072;28;20038;-72
2021/12/05 02:37:32;;;;;;;4.82;1.30;;;6.40;99.90;;;;;;5016015;28;20032;-72
2021/12/05 02:42:56;;;;;;;4.68;0.93;;;6.50;99.90;;;;;;5034141;28;20293;-72
2021/12/05 02:45:22;;;;;;;4.38;1.02;;;6.50;99.90;;;;;;5015824;28;20060;-73
2021/12/05 02:47:51;;;;;;;7.38;0.93;;;6.50;99.90;;;;;;5034069;28;20026;-73
2021/12/05 02:50:19;;;;;;;6.32;1.42;;;6.40;99.90;;;;;;5033792;28;20485;-72
2021/12/05 02:52:46;;;;;;;2.67;1.08;;;6.50;99.90;;;;;;5033695;28;20022;-73
2021/12/05 02:55:32;;;;;;;2.47;1.00;;;6.50;99.90;;;;;;5034223;28;20100;-73
2021/12/05 02:58:02;;;;;;;6.68;2.05;;;6.50;99.90;;;;;;5033961;28;20025;-72
2021/12/05 03:01:08;;;;;;;3.08;0.90;;;6.50;99.90;;;;;;5033924;28;20091;-73
2021/12/05 03:03:24;;;;;;;4.38;1.17;;;6.50;99.90;;;;;;5032826;28;20045;-73
2021/12/05 03:05:57;;;;;;;4.47;1.65;;;6.40;99.90;;;;;;5034342;28;20112;-73
2021/12/05 03:08:23;;;;;;;4.20;1.17;;;6.50;99.90;;;;;;5033810;28;20119;-73
2021/12/05 03:10:51;;;;;;;3.90;0.90;;;6.50;99.90;;;;;;5033488;28;20021;-72
2021/12/05 03:13:16;;;;;;;6.15;1.10;;;6.50;99.90;;;;;;5033722;28;20025;-73
2021/12/05 03:15:43;;;;;;;3.00;0.95;;;6.50;99.90;;;;;;5033450;28;20503;-72
2021/12/05 03:18:09;;;;;;;5.22;0.95;;;6.60;99.90;;;;;;5033195;28;20124;-72
2021/12/05 03:20:35;;;;;;;5.68;1.08;;;6.60;99.90;;;;;;5033357;28;20108;-73
2021/12/05 03:23:00;;;;;;;1.90;0.65;;;6.60;99.90;;;;;;5033616;28;20505;-73
2021/12/05 03:25:26;;;;;;;3.63;1.42;;;6.50;99.90;;;;;;5033205;28;20029;-74
2021/12/05 03:27:53;;;;;;;5.70;1.20;;;6.50;99.90;;;;;;5033305;28;20013;-72
2021/12/05 03:30:25;;;;;;;5.38;1.30;;;6.50;99.90;;;;;;5015545;28;20112;-73
2021/12/05 03:32:53;;;;;;;6.10;1.65;;;6.50;99.90;;;;;;5033531;28;20104;-73
2021/12/05 03:35:23;;;;;;;8.05;2.38;;;6.50;99.90;;;;;;5033448;28;20064;-73
2021/12/05 03:37:49;;;;;;;;;;;6.50;99.90;;;;;;5033645;28;20022;-72
2021/12/05 03:40:18;;;;;;;4.25;1.00;;;6.50;99.90;;;;;;5033130;28;20361;-71
2021/12/05 03:42:44;;;;;;;4.80;1.08;;;6.40;99.90;;;;;;5034578;28;20071;-72
2021/12/05 03:45:14;;;;;;;3.00;0.90;;;6.40;99.90;;;;;;5037454;28;20474;-72
2021/12/05 03:47:40;;;;;;;11.87;1.50;;;6.40;99.90;;;;;;5037231;28;20029;-73
2021/12/05 03:50:09;;;;;;;3.40;0.95;;;6.30;99.90;;;;;;5037430;28;20029;-73
2021/12/05 03:52:35;;;;;;;5.38;1.20;;;6.30;99.90;;;;;;5037070;28;20021;-72
2021/12/05 03:55:01;;;;;;;7.35;1.25;;;6.30;99.90;;;;;;5037312;28;20048;-74
2021/12/05 03:57:27;;;;;;;2.40;0.95;;;6.20;99.90;;;;;;5037016;28;20022;-73
2021/12/05 03:59:53;;;;;;;4.18;1.08;;;6.20;99.90;;;;;;5036982;28;20044;-72
2021/12/05 04:02:18;;;;;;;6.55;1.23;;;6.20;99.90;;;;;;5037206;28;20022;-73
2021/12/05 04:04:44;;;;;;;4.10;1.23;;;6.10;99.90;;;;;;5036783;28;20474;-73
2021/12/05 04:07:13;;;;;;;4.53;1.85;;;6.10;99.90;;;;;;5036860;28;20014;-73
2021/12/05 04:09:39;;;;;;;4.85;1.70;;;6.10;99.90;;;;;;5036764;28;20478;-73
2021/12/05 04:12:05;;;;;;;8.25;1.50;;;6.10;99.90;;;;;;5036749;28;20026;-72
2021/12/05 04:14:37;;;;;;;7.30;2.10;;;6.10;99.90;;;;;;5037260;28;20033;-73
2021/12/05 04:17:06;;;;;;;6.03;2.00;;;6.10;99.90;;;;;;5018614;28;20477;-73
2021/12/05 04:19:32;;;;;;;7.88;2.10;;;6.10;99.90;;;;;;5036231;28;20107;-73
2021/12/05 04:21:58;;;;;;;8.23;2.05;;;6.10;99.90;;;;;;5037065;28;20071;-72
2021/12/05 04:24:24;;;;;;;5.63;1.40;;;6.10;99.90;;;;;;5036444;28;20045;-73
2021/12/05 04:26:50;;;;;;;3.13;1.58;;;6.10;99.90;;;;;;5036726;28;20026;-73
2021/12/05 04:29:16;;;;;;;3.55;1.10;;;6.10;99.90;;;;;;5036424;28;20482;-72
2021/12/05 04:31:41;;;;;;;6.32;2.03;;;6.10;99.90;;;;;;5036390;28;20079;-73
2021/12/05 04:34:08;;;;;;;6.88;1.70;;;6.10;99.90;;;;;;5036339;28;20079;-73
2021/12/05 04:36:35;;;;;;;5.15;1.80;;;6.10;99.90;;;;;;5036308;28;20025;-72
2021/12/05 04:39:01;;;;;;;6.15;1.70;;;6.00;99.90;;;;;;5036254;28;20033;-73
2021/12/05 04:41:27;;;;;;;5.25;1.95;;;6.00;99.90;;;;;;5036446;28;20025;-73
2021/12/05 04:43:53;;;;;;;9.15;1.85;;;6.00;99.90;;;;;;5036036;28;20040;-72
2021/12/05 04:46:22;;;;;;;5.95;1.90;;;6.00;99.90;;;;;;5036130;28;20056;-73
2021/12/05 04:48:51;;;;;;;8.48;2.10;;;6.00;99.90;;;;;;5036006;28;20014;-73
2021/12/05 04:51:19;;;;;;;4.50;1.60;;;6.00;99.90;;;;;;5036020;28;20494;-72
2021/12/05 04:53:45;;;;;;;8.70;1.60;;;6.00;99.90;;;;;;5035166;28;20478;-72
2021/12/05 04:56:11;;;;;;;5.53;2.08;;;6.00;99.90;;;;;;5035737;28;20032;-72
2021/12/05 04:58:37;;;;;;;6.53;1.60;;;6.00;99.90;;;;;;5035886;28;20026;-72
2021/12/05 05:01:05;;;;;;;3.80;1.25;;;6.10;99.90;;;;;;5035867;28;20079;-73
2021/12/05 05:03:32;;;;;;;4.47;1.23;;;6.00;99.90;;;;;;5035785;28;20052;-72
2021/12/05 05:06:05;;;;;;;8.23;1.48;;;6.00;99.90;;;;;;5017940;28;20022;-72
2021/12/05 05:08:33;;;;;;;5.85;1.33;;;6.00;99.90;;;;;;5036065;28;20104;-72
2021/12/05 05:11:02;;;;;;;7.47;1.30;;;6.10;99.90;;;;;;5035697;28;20148;-73
2021/12/05 05:13:29;;;;;;;9.10;1.85;;;6.10;99.90;;;;;;5035616;28;20028;-72
2021/12/05 05:15:55;;;;;;;5.28;1.65;;;6.10;99.90;;;;;;5035562;28;20030;-73
2021/12/05 05:18:23;;;;;;;7.28;1.45;;;6.20;99.90;;;;;;5035525;28;20528;-73
2021/12/05 05:24:06;;;;;;;5.38;1.38;;;6.20;99.90;;;;;;5002085;28;20041;-73
2021/12/05 05:52:16;;;;;;;5.18;1.20;;;6.10;99.90;;;;;;5035164;28;20484;-72
2021/12/05 05:54:45;;;;;;;7.57;1.55;;;6.10;99.90;;;;;;5034905;28;20022;-73
2021/12/05 05:59:55;;;;;;;9.98;1.77;;;6.00;99.90;;;;;;5034454;28;20025;-73
2021/12/05 06:05:05;;;;;;;6.88;2.03;;;6.00;99.90;;;;;;5034785;28;20040;-72
2021/12/05 06:07:33;;;;;;;6.03;1.55;;;6.00;99.90;;;;;;5034600;28;20386;-73
2021/12/05 06:09:58;;;;;;;9.20;1.73;;;6.00;99.90;;;;;;5034600;28;20482;-73
2021/12/05 06:12:24;;;;;;;6.97;1.73;;;6.00;99.90;;;;;;5034517;28;20022;-73
2021/12/05 06:14:50;;;;;;;9.70;1.70;;;6.00;99.90;;;;;;5034438;28;20033;-73
2021/12/05 06:17:18;;;;;;;7.57;1.45;;;6.00;99.90;;;;;;5034992;28;20021;-72
2021/12/05 06:19:44;;;;;;;6.40;1.52;;;6.00;99.90;;;;;;5034029;28;20514;-73
2021/12/05 06:22:09;;;;;;;5.93;1.38;;;6.00;99.90;;;;;;5034354;28;20032;-73
2021/12/05 06:24:35;;;;;;;3.88;1.48;;;6.00;99.90;;;;;;5034183;28;20034;-73
2021/12/05 06:27:02;;;;;;;5.60;1.65;;;6.00;99.90;;;;;;5034228;28;20018;-73
2021/12/05 06:29:34;;;;;;;10.00;2.05;;;6.00;99.90;;;;;;5034745;28;20067;-73
2021/12/05 06:40:47;;;;;;;8.80;1.67;;;6.00;99.90;;;;;;5034011;28;20041;-73
2021/12/05 06:45:59;;;;;;;9.30;1.75;;;6.00;99.90;;;;;;5023167;28;20041;-72
2021/12/05 06:48:06;;;;;;;7.05;1.42;;;6.10;99.90;;;;;;5033893;28;20028;-72
2021/12/05 06:50:32;;;;;;;8.48;1.80;;;6.10;99.90;;;;;;5033839;28;20135;-72
2021/12/05 06:52:57;;;;;;;7.82;1.65;;;6.10;99.90;;;;;;5034006;28;20040;-73
2021/12/05 06:55:23;;;;;;;5.53;1.38;;;6.10;99.90;;;;;;5033979;28;20112;-72
2021/12/05 06:57:49;;;;;;;9.35;2.55;;;6.10;99.90;;;;;;5034222;28;20021;-73
2021/12/05 07:00:25;;;;;;;10.93;3.22;;;6.10;99.90;;;;;;5033677;28;20060;-73
2021/12/05 07:02:51;;;;;;;11.63;4.20;;;6.10;99.90;;;;;;5033919;28;20025;-72
2021/12/05 07:07:43;;;;;;;7.65;2.17;;;6.10;99.90;;;;;;5033781;28;20104;-73
2021/12/05 07:10:09;;;;;;;7.85;2.80;;;6.10;99.90;;;;;;5033759;28;20466;-73
2021/12/05 07:15:52;;;;;;;9.25;2.88;;;6.00;99.90;;;;;;4963401;28;20514;-73
2021/12/05 07:42:41;;;;;;;8.02;1.85;;;5.80;99.90;;;;;;5053663;28;20090;-72
2021/12/05 07:45:10;;;;;;;7.22;1.73;;;5.90;99.90;;;;;;5053299;28;20091;-72
2021/12/05 07:47:39;;;;;;;7.20;2.13;;;5.90;99.90;;;;;;5052970;28;20048;-73
2021/12/05 07:50:09;;;;;;;9.68;1.88;;;6.00;99.90;;;;;;5053273;28;20048;-73
2021/12/05 07:52:40;;;;;;;8.25;2.65;;;6.00;99.90;;;;;;5052989;28;20021;-72
2021/12/05 07:55:16;;;;;;;7.82;2.10;;;6.00;99.90;;;;;;5052984;28;20037;-72
2021/12/05 08:00:58;;;;;;;12.25;2.63;;;5.90;99.90;;;;;;5041227;28;20409;-72
2021/12/05 08:14:27;;;;;;;6.13;2.95;;;5.90;99.90;;;;;;5052782;28;20040;-72
2021/12/05 08:16:54;;;;;;;11.95;4.18;;;6.00;99.90;;;;;;5053085;28;20021;-72
2021/12/05 08:19:20;;;;;;;11.98;3.40;;;6.00;99.90;;;;;;5038236;28;20576;-73
2021/12/05 08:21:50;;;;;;;7.95;3.08;;;6.00;99.90;;;;;;5032742;28;20033;-72
2021/12/05 08:24:16;;;;;;;7.78;2.90;;;6.00;99.90;;;;;;5032967;28;20040;-73
2021/12/05 08:26:44;;;;;;;12.07;3.20;;;6.00;99.90;;;;;;5033014;28;20482;-72
2021/12/05 08:29:14;;;;;;;7.75;3.00;;;6.00;99.90;;;;;;5033173;28;20022;-72
2021/12/05 08:32:04;;;;;;;7.85;3.08;;;6.10;99.90;;;;;;5036741;28;20090;-73
2021/12/05 09:26:02;;;;;;;7.85;2.40;;;7.50;99.90;;;;;;5035371;28;20079;-73
2021/12/05 10:09:43;;;;;;;13.80;2.67;;;8.70;99.90;;;;;;5034569;28;20106;-74
2021/12/05 10:35:50;;;;;;;7.22;2.28;;;8.90;99.90;;;;;;5034345;28;20401;-72
2021/12/05 10:38:02;;;;;;;5.97;1.92;;;9.10;99.90;;;;;;5029912;28;20034;-73
2021/12/05 10:40:40;;;;;;;14.13;2.05;;;9.10;99.90;;;;;;5033977;28;20029;-73
2021/12/05 10:43:17;;;;;;;12.02;1.80;;;9.00;99.90;;;;;;5033864;28;20029;-73
2021/12/05 10:45:47;;;;;;;7.07;1.83;;;9.00;99.90;;;;;;5034401;28;20029;-73
2021/12/05 10:48:31;;;;;;;8.60;2.13;;;9.00;99.90;;;;;;5033719;28;20029;-73
2021/12/05 10:51:03;;;;;;;8.80;1.92;;;9.10;99.90;;;;;;5034122;28;20060;-73
2021/12/05 10:53:41;;;;;;;9.18;2.00;;;9.20;99.90;;;;;;5033326;28;20025;-72
2021/12/05 10:56:22;;;;;;;7.68;1.88;;;9.40;99.90;;;;;;5034280;28;20022;-72
2021/12/05 10:59:07;;;;;;;8.13;2.75;;;9.50;99.90;;;;;;5033991;28;20021;-74
2021/12/05 11:01:38;;;;;;;8.15;1.80;;;9.40;99.90;;;;;;5033972;28;20025;-72
2021/12/05 11:04:03;;;;;;;15.98;2.38;;;9.30;99.90;;;;;;5033825;28;20428;-72
2021/12/05 11:06:32;;;;;;;10.02;2.15;;;9.30;99.90;;;;;;5033698;28;20029;-73
2021/12/05 11:09:02;;;;;;;13.40;2.53;;;9.40;99.90;;;;;;5015893;28;20048;-73
2021/12/05 11:11:29;;;;;;;10.55;1.98;;;9.50;99.90;;;;;;5033548;28;20021;-73
2021/12/05 11:13:58;;;;;;;10.23;2.50;;;9.60;99.90;;;;;;5033509;28;20033;-73
2021/12/05 11:16:50;;;;;;;9.20;1.90;;;9.60;99.90;;;;;;5033429;28;20148;-72
2021/12/05 11:19:29;;;;;;;10.77;3.58;;;9.50;99.90;;;;;;5033404;28;20048;-73
2021/12/05 11:22:03;;;;;;;8.68;2.42;;;9.40;99.90;;;;;;5033641;28;20022;-73
2021/12/05 11:24:35;;;;;;;7.95;2.53;;;9.40;99.90;;;;;;5033583;28;20021;-72
2021/12/05 11:27:27;;;;;;;10.07;2.00;;;9.30;99.90;;;;;;5033729;28;20040;-72
2021/12/05 11:30:00;;;;;;;7.05;1.65;;;9.30;99.90;;;;;;5033287;28;20100;-73
2021/12/05 11:32:40;;;;;;;13.93;3.17;;;9.20;99.90;;;;;;5033240;28;20025;-72
2021/12/05 11:35:32;;;;;;;9.68;2.25;;;9.10;99.90;;;;;;5033509;28;20080;-72
2021/12/05 11:38:08;;;;;;;11.95;2.80;;;9.10;99.90;;;;;;5033800;28;20025;-73
2021/12/05 11:40:45;;;;;;;8.43;3.10;;;9.10;99.90;;;;;;5033394;28;20100;-72
2021/12/05 11:43:15;;;;;;;10.48;2.10;;;9.10;99.90;;;;;;5033264;28;20026;-73
2021/12/05 11:46:14;;;;;;;13.90;2.58;;;9.10;99.90;;;;;;5033096;28;20022;-74
2021/12/05 11:48:54;;;;;;;13.40;2.80;;;9.10;99.90;;;;;;5033406;28;20107;-72
2021/12/05 11:51:41;;;;;;;6.80;1.77;;;9.10;99.90;;;;;;5033381;28;20470;-72
2021/12/05 11:54:14;;;;;;;6.38;2.10;;;9.10;99.90;;;;;;5033298;28;20720;-73
2021/12/05 11:56:47;;;;;;;8.20;2.03;;;9.00;99.90;;;;;;5033081;28;20104;-73
2021/12/05 11:59:38;;;;;;;9.25;1.77;;;9.10;99.90;;;;;;5033316;28;20030;-73
2021/12/05 12:02:04;;;;;;;9.45;1.98;;;9.10;99.90;;;;;;5032505;28;20111;-72
2021/12/05 12:04:52;;;;;;;9.70;2.53;;;9.00;99.90;;;;;;5035547;28;20025;-73
2021/12/05 12:07:35;;;;;;;8.98;1.90;;;8.90;99.90;;;;;;5037203;28;20033;-72
2021/12/05 12:10:22;;;;;;;12.02;2.40;;;8.70;99.90;;;;;;5036844;28;20052;-73
2021/12/05 12:12:54;;;;;;;10.65;2.40;;;8.60;99.90;;;;;;5037107;28;20029;-73
2021/12/05 12:15:21;;;;;;;9.75;2.83;;;8.70;99.90;;;;;;5037043;28;20091;-73
2021/12/05 12:17:48;;;;;;;9.30;2.20;;;8.80;99.90;;;;;;5036742;28;20030;-72
2021/12/05 12:20:19;;;;;;;7.55;2.25;;;8.90;99.90;;;;;;5036670;28;20075;-73
2021/12/05 12:22:45;;;;;;;9.25;2.05;;;9.00;99.90;;;;;;5036898;28;20389;-74
2021/12/05 12:25:16;;;;;;;8.45;1.80;;;8.90;99.90;;;;;;5036753;28;20061;-72
2021/12/05 12:27:43;;;;;;;6.32;1.45;;;8.70;99.90;;;;;;5036825;28;20026;-73
2021/12/05 12:30:10;;;;;;;7.72;1.85;;;8.70;99.90;;;;;;5036730;28;20026;-72
2021/12/05 12:32:44;;;;;;;6.68;1.58;;;8.60;99.90;;;;;;5036644;28;20024;-73
2021/12/05 12:35:24;;;;;;;12.13;1.88;;;8.50;99.90;;;;;;5036664;28;20075;-73
2021/12/05 12:38:12;;;;;;;8.95;1.70;;;8.40;99.90;;;;;;5036663;28;20088;-72
2021/12/05 12:40:46;;;;;;;7.40;1.63;;;8.20;99.90;;;;;;5036612;28;20536;-72
2021/12/05 12:43:43;;;;;;;9.07;2.22;;;8.00;99.90;;;;;;5036326;28;20024;-72
2021/12/05 12:46:36;;;;;;;10.10;1.30;;;8.00;99.90;;;;;;5036372;28;20087;-73
2021/12/05 12:49:14;;;;;;;5.43;1.35;;;8.00;99.90;;;;;;5036725;28;20462;-71
2021/12/05 12:51:59;;;;;;;6.07;1.83;;;8.00;99.90;;;;;;5036062;28;20497;-73
2021/12/05 12:54:31;;;;;;;10.50;1.83;;;8.10;99.90;;;;;;5036084;28;20083;-73
2021/12/05 12:57:12;;;;;;;10.10;2.00;;;8.20;99.90;;;;;;5036013;28;20029;-73
2021/12/05 12:59:41;;;;;;;9.90;2.50;;;8.30;99.90;;;;;;5035958;28;20024;-73
2021/12/05 13:03:12;;;;;;;5.40;2.40;;;8.40;99.90;;;;;;5036128;28;20108;-73
2021/12/05 13:05:35;;;;;;;17.25;2.78;;;8.50;99.90;;;;;;5021726;28;20040;-72
2021/12/05 13:11:04;;;;;;;7.22;1.70;;;8.60;99.90;;;;;;5036079;28;20445;-72
2021/12/05 13:13:32;;;;;;;5.07;1.60;;;8.50;99.90;;;;;;5035751;28;20111;-72
2021/12/05 13:16:27;;;;;;;7.68;1.58;;;8.40;99.90;;;;;;5034841;28;20033;-73
2021/12/05 13:19:08;;;;;;;10.43;2.15;;;8.40;99.90;;;;;;5035431;28;20049;-73
2021/12/05 13:21:39;;;;;;;10.70;2.22;;;8.50;99.90;;;;;;5036138;28;20021;-73
2021/12/05 13:24:29;;;;;;;9.45;1.77;;;8.50;99.90;;;;;;5035701;28;20467;-73
2021/12/05 13:27:03;;;;;;;9.10;1.90;;;8.40;99.90;;;;;;5036007;28;20025;-72
2021/12/05 13:29:32;;;;;;;12.60;2.90;;;8.30;99.90;;;;;;5035881;28;20075;-73
2021/12/05 13:32:16;;;;;;;9.00;2.08;;;8.20;99.90;;;;;;5035323;28;20075;-72
2021/12/05 13:34:41;;;;;;;9.35;1.75;;;8.20;99.90;;;;;;5035812;28;20036;-72
2021/12/05 13:37:08;;;;;;;6.97;1.60;;;8.20;99.90;;;;;;5035473;28;20025;-73
2021/12/05 13:39:48;;;;;;;11.93;1.85;;;8.20;99.90;;;;;;5035197;28;20496;-73
2021/12/05 13:42:16;;;;;;;11.00;1.88;;;8.10;99.90;;;;;;5035364;28;20041;-72
2021/12/05 13:45:00;;;;;;;7.25;1.88;;;8.00;99.90;;;;;;5035550;28;20030;-72
2021/12/05 13:47:31;;;;;;;9.43;2.28;;;8.00;99.90;;;;;;5035315;28;20017;-72
2021/12/05 13:50:25;;;;;;;8.90;1.60;;;8.00;99.90;;;;;;5035021;28;20087;-74
2021/12/05 13:53:02;;;;;;;9.23;1.75;;;8.00;99.90;;;;;;5034958;28;20013;-73
2021/12/05 13:55:31;;;;;;;10.98;1.73;;;8.00;99.90;;;;;;5035199;28;20029;-73
2021/12/05 13:58:32;;;;;;;9.95;2.08;;;8.00;99.90;;;;;;5035112;28;20029;-72
2021/12/05 14:01:07;;;;;;;9.48;2.47;;;8.10;99.90;;;;;;5034803;28;20424;-72
2021/12/05 14:03:44;;;;;;;12.35;1.92;;;8.00;99.90;;;;;;5017010;28;20032;-73
2021/12/05 14:06:28;;;;;;;8.93;2.33;;;8.10;99.90;;;;;;5035217;28;20116;-73
2021/12/05 14:08:58;;;;;;;13.23;1.90;;;8.10;99.90;;;;;;5034619;28;20025;-72
2021/12/05 14:11:26;;;;;;;10.07;2.33;;;8.10;99.90;;;;;;5034557;28;20029;-72
2021/12/05 14:13:52;;;;;;;12.32;2.92;;;8.20;99.90;;;;;;5034475;28;20021;-72
2021/12/05 14:16:20;;;;;;;10.40;2.47;;;8.30;99.90;;;;;;5034409;28;20056;-72
2021/12/05 14:18:46;;;;;;;12.55;2.72;;;8.30;99.90;;;;;;5034079;28;20058;-73
2021/12/05 14:21:14;;;;;;;10.75;2.60;;;8.40;99.90;;;;;;5034924;28;20377;-74
2021/12/05 14:23:50;;;;;;;18.83;3.17;;;8.40;99.90;;;;;;5034355;28;20060;-73
2021/12/05 14:26:20;;;;;;;12.43;3.35;;;8.50;99.90;;;;;;5033840;28;20065;-73
2021/12/05 14:29:12;;;;;;;9.77;2.30;;;8.60;99.90;;;;;;5034211;28;20084;-73
2021/12/05 14:31:42;;;;;;;20.88;3.20;;;8.60;99.90;;;;;;5034488;28;20067;-72
2021/12/05 14:34:09;;;;;;;9.35;2.58;;;8.70;99.90;;;;;;5034462;28;20028;-72
2021/12/05 14:36:44;;;;;;;10.00;2.10;;;8.70;99.90;;;;;;5034119;28;20033;-73
2021/12/05 14:39:17;;;;;;;9.73;2.00;;;8.70;99.90;;;;;;5034615;28;20109;-73
2021/12/05 14:41:45;;;;;;;14.82;2.88;;;8.80;99.90;;;;;;5034050;28;20490;-72
2021/12/05 14:44:12;;;;;;;9.30;2.45;;;8.80;99.90;;;;;;5033791;28;20014;-74
2021/12/05 14:46:59;;;;;;;11.68;2.42;;;8.80;99.90;;;;;;5033970;28;20100;-73
2021/12/05 14:49:29;;;;;;;7.85;2.13;;;9.00;99.90;;;;;;5034249;28;20458;-73
2021/12/05 14:51:55;;;;;;;9.13;2.38;;;9.00;99.90;;;;;;5034161;28;20014;-72
2021/12/05 14:54:35;;;;;;;6.68;1.77;;;9.00;99.90;;;;;;5034105;28;20025;-73
2021/12/05 14:57:10;;;;;;;11.63;2.50;;;9.00;99.90;;;;;;5034367;28;20167;-72
2021/12/05 14:59:36;;;;;;;8.35;2.15;;;9.00;99.90;;;;;;5015693;28;20409;-73
2021/12/05 15:02:01;;;;;;;9.07;2.33;;;9.00;99.90;;;;;;5033633;28;20066;-73
2021/12/05 15:04:33;;;;;;;13.05;1.95;;;9.00;99.90;;;;;;5033825;28;20033;-72
2021/12/05 15:06:59;;;;;;;9.40;1.75;;;9.10;99.90;;;;;;5033696;28;20025;-73
2021/12/05 15:09:33;;;;;;;7.10;1.63;;;9.20;99.90;;;;;;5033808;28;20025;-73
2021/12/05 15:12:08;;;;;;;14.50;2.63;;;9.20;99.90;;;;;;5034088;28;20018;-73
2021/12/05 15:14:36;;;;;;;6.90;2.17;;;9.20;99.90;;;;;;5034067;28;20045;-72
2021/12/05 15:17:09;;;;;;;7.32;2.33;;;9.30;99.90;;;;;;5015718;28;20425;-73
2021/12/05 15:19:38;;;;;;;7.18;1.95;;;9.30;99.90;;;;;;5033035;28;20053;-73
2021/12/05 15:22:06;;;;;;;8.82;1.77;;;9.30;99.90;;;;;;5033410;28;20065;-73
2021/12/05 15:24:32;;;;;;;8.57;1.80;;;9.40;99.90;;;;;;5033575;28;20026;-73
2021/12/05 15:26:59;;;;;;;11.27;2.00;;;9.40;99.90;;;;;;5033629;28;20017;-72
2021/12/05 15:29:26;;;;;;;10.73;1.80;;;9.40;99.90;;;;;;5033302;28;20389;-73
2021/12/05 15:31:53;;;;;;;6.68;1.52;;;9.40;99.90;;;;;;5033543;28;20022;-73
2021/12/05 15:34:26;;;;;;;8.82;2.65;;;9.30;99.90;;;;;;5033213;28;20500;-72
2021/12/05 15:36:53;;;;;;;9.27;2.28;;;9.30;99.90;;;;;;5033491;28;20024;-73
2021/12/05 15:39:23;;;;;;;8.07;2.47;;;9.20;99.90;;;;;;5033232;28;20056;-72
2021/12/05 15:41:51;;;;;;;5.13;1.60;;;9.20;99.90;;;;;;5033087;28;20075;-73
2021/12/05 15:44:39;;;;;;;6.10;1.48;;;9.10;99.90;;;;;;5033097;28;20045;-72
2021/12/05 15:47:16;;;;;;;5.75;1.25;;;9.10;99.90;;;;;;5033443;28;20024;-73
2021/12/05 15:49:50;;;;;;;5.75;1.40;;;9.10;99.90;;;;;;5033698;28;20010;-72
2021/12/05 15:52:19;;;;;;;8.85;2.22;;;9.00;99.90;;;;;;5033378;28;20048;-73
2021/12/05 15:54:46;;;;;;;5.75;1.60;;;9.00;99.90;;;;;;5033366;28;20067;-72
2021/12/05 15:57:23;;;;;;;8.30;1.25;;;9.00;99.90;;;;;;5033310;28;20473;-74
2021/12/05 15:59:49;;;;;;;5.50;1.45;;;8.90;99.90;;;;;;5033063;28;20045;-73
2021/12/05 16:02:17;;;;;;;9.38;1.50;;;9.00;99.90;;;;;;5033526;28;20025;-72
2021/12/05 16:04:44;;;;;;;10.70;2.03;;;8.90;99.90;;;;;;5032900;28;20021;-72
2021/12/05 16:07:10;;;;;;;9.52;2.00;;;8.90;99.90;;;;;;5033230;28;20490;-73
2021/12/05 16:09:41;;;;;;;5.18;1.30;;;8.80;99.90;;;;;;5032915;28;20018;-73
2021/12/05 16:12:14;;;;;;;12.07;1.83;;;8.80;99.90;;;;;;5032868;28;20393;-72
2021/12/05 16:14:46;;;;;;;11.43;1.70;;;8.80;99.90;;;;;;5033029;28;20113;-73
2021/12/05 16:17:27;;;;;;;5.50;1.65;;;8.80;99.90;;;;;;5032828;28;20486;-73
2021/12/05 16:20:15;;;;;;;4.30;1.52;;;8.70;99.90;;;;;;5032517;28;20052;-72
2021/12/05 16:23:05;;;;;;;4.78;1.73;;;8.70;99.90;;;;;;5033001;28;20068;-73
2021/12/05 16:25:32;;;;;;;7.57;1.50;;;8.70;99.90;;;;;;5033339;28;20432;-73
2021/12/05 16:28:02;;;;;;;5.38;1.38;;;8.60;99.90;;;;;;5032760;28;20071;-72
2021/12/05 16:30:32;;;;;;;8.80;1.70;;;8.60;99.90;;;;;;5033071;28;20053;-73
2021/12/05 16:33:03;;;;;;;6.05;1.40;;;8.60;99.90;;;;;;5033029;28;20022;-73
2021/12/05 16:35:31;;;;;;;11.70;1.67;;;8.60;99.90;;;;;;5033033;28;20033;-72
2021/12/05 16:37:57;;;;;;;6.93;1.65;;;8.60;99.90;;;;;;5032941;28;20052;-73
2021/12/05 16:40:23;;;;;;;6.47;1.90;;;8.60;99.90;;;;;;5032701;28;20533;-72
2021/12/05 16:43:06;;;;;;;11.55;1.75;;;8.60;99.90;;;;;;5032603;28;20025;-73
2021/12/05 16:45:38;;;;;;;6.10;1.75;;;8.60;99.90;;;;;;5032574;28;20026;-73
2021/12/05 16:48:05;;;;;;;8.85;1.98;;;8.60;99.90;;;;;;5032901;28;20029;-72
2021/12/05 16:50:32;;;;;;;7.18;1.80;;;8.50;99.90;;;;;;5033545;28;20495;-72
2021/12/05 16:52:57;;;;;;;7.40;2.63;;;8.50;99.90;;;;;;5036102;28;20390;-72
2021/12/05 16:55:27;;;;;;;8.48;1.92;;;8.50;99.90;;;;;;5036030;28;20033;-74
2021/12/05 16:58:38;;;;;;;7.15;1.75;;;8.50;99.90;;;;;;5036004;28;20072;-72
2021/12/05 17:00:52;;;;;;;10.40;2.10;;;8.50;99.90;;;;;;5025113;28;20493;-73
2021/12/05 17:03:26;;;;;;;5.65;2.15;;;8.50;99.90;;;;;;5035910;28;20033;-72
2021/12/05 17:05:55;;;;;;;7.70;2.53;;;8.60;99.90;;;;;;5017795;28;20030;-72
2021/12/05 17:08:25;;;;;;;8.32;2.50;;;8.50;99.90;;;;;;5018086;28;20025;-72
2021/12/05 17:10:59;;;;;;;9.27;1.90;;;8.50;99.90;;;;;;5036040;28;20103;-72
2021/12/05 17:13:48;;;;;;;12.25;2.03;;;8.60;99.90;;;;;;5035984;28;20032;-73
2021/12/05 17:16:25;;;;;;;4.82;1.30;;;8.70;99.90;;;;;;5035672;28;20564;-73
2021/12/05 17:18:56;;;;;;;8.57;1.50;;;8.70;99.90;;;;;;5035595;28;20057;-73
2021/12/05 17:21:29;;;;;;;10.13;2.20;;;8.70;99.90;;;;;;5035852;28;20028;-73
2021/12/05 17:24:06;;;;;;;11.85;1.80;;;8.80;99.90;;;;;;5035819;28;20029;-72
2021/12/05 17:26:40;;;;;;;5.93;1.85;;;8.80;99.90;;;;;;5035802;28;20083;-73
2021/12/05 17:29:19;;;;;;;11.85;1.83;;;8.80;99.90;;;;;;5035424;28;20025;-72
2021/12/05 17:32:12;;;;;;;7.57;1.70;;;8.90;99.90;;;;;;5035696;28;20022;-73
2021/12/05 17:34:43;;;;;;;9.43;1.73;;;8.90;99.90;;;;;;5029507;28;20064;-73
2021/12/05 17:37:18;;;;;;;7.93;1.55;;;8.90;99.90;;;;;;5035860;28;20043;-72
2021/12/05 17:39:45;;;;;;;7.80;2.20;;;8.80;99.90;;;;;;5035806;28;20034;-73
2021/12/05 17:42:21;;;;;;;6.85;1.73;;;8.80;99.90;;;;;;5035085;28;20545;-72
2021/12/05 17:44:49;;;;;;;8.32;1.90;;;8.80;99.90;;;;;;5035628;28;20079;-72
2021/12/05 17:47:16;;;;;;;13.35;1.58;;;8.80;99.90;;;;;;5035071;28;20026;-72
2021/12/05 17:49:44;;;;;;;8.73;1.80;;;8.70;99.90;;;;;;5035093;28;20049;-73
2021/12/05 17:52:12;;;;;;;7.40;1.95;;;8.70;99.90;;;;;;5034959;28;20024;-73
2021/12/05 17:54:51;;;;;;;7.72;2.35;;;8.70;99.90;;;;;;5035212;28;20036;-72
2021/12/05 17:57:30;;;;;;;7.35;1.60;;;8.70;99.90;;;;;;5035128;28;20072;-72
2021/12/05 18:02:45;;;;;;;8.70;1.70;;;8.70;99.90;;;;;;5035299;28;20029;-73
2021/12/05 18:05:16;;;;;;;12.00;2.23;;;8.60;99.90;;;;;;5035002;28;20104;-72
2021/12/05 18:07:43;;;;;;;5.15;2.00;;;8.60;99.90;;;;;;5034660;28;20022;-73
2021/12/05 18:10:11;;;;;;;7.88;1.95;;;8.50;99.90;;;;;;5034607;28;20048;-72
2021/12/05 18:12:38;;;;;;;5.90;1.60;;;8.50;99.90;;;;;;5034578;28;20041;-74
2021/12/05 18:15:12;;;;;;;9.40;1.98;;;8.50;99.90;;;;;;5016754;28;20494;-73
2021/12/05 18:17:40;;;;;;;9.50;2.00;;;8.40;99.90;;;;;;5035047;28;20478;-73
2021/12/05 18:20:09;;;;;;;8.23;2.03;;;8.50;99.90;;;;;;5036461;28;20120;-73
2021/12/05 18:22:35;;;;;;;12.38;3.08;;;8.40;99.90;;;;;;5054303;28;20029;-72
2021/12/05 18:25:02;;;;;;;11.88;3.15;;;8.50;99.90;;;;;;5054154;28;20025;-72
2021/12/05 18:27:27;;;;;;;7.13;2.63;;;8.50;99.90;;;;;;5054192;28;20017;-73
2021/12/05 18:29:53;;;;;;;6.32;1.60;;;8.50;99.90;;;;;;5054247;28;20020;-72
2021/12/05 18:32:19;;;;;;;8.68;2.45;;;8.50;99.90;;;;;;5054193;28;20522;-73
2021/12/05 18:34:46;;;;;;;8.70;1.85;;;8.50;99.90;;;;;;5054075;28;20037;-72
2021/12/05 18:37:12;;;;;;;6.30;1.50;;;8.50;99.90;;;;;;5054041;28;20025;-72
2021/12/05 18:39:43;;;;;;;8.73;1.83;;;8.50;99.90;;;;;;5053989;28;20025;-73
2021/12/05 18:42:10;;;;;;;8.20;1.60;;;8.50;99.90;;;;;;5053916;28;20021;-73
2021/12/05 18:44:41;;;;;;;5.70;1.63;;;8.50;99.90;;;;;;5054390;28;20031;-72
2021/12/05 18:47:08;;;;;;;7.53;1.63;;;8.50;99.90;;;;;;5035675;28;20021;-73
2021/12/05 18:49:35;;;;;;;7.30;2.00;;;8.50;99.90;;;;;;5054131;28;20440;-73
2021/12/05 18:52:02;;;;;;;5.68;1.58;;;8.50;99.90;;;;;;5054325;28;20369;-72